EPLL

Łódź Władysław Reymont Airport

Łódź, Poland
METAR EPLL 152100Z 31003KT 270V350 9999 FEW060CB 18/15 Q1013
Observed Flight Rules
Jul-15 @ 21:00 UTC (12 minutes ago) Visual Flight Rules
Wind Visibility Clouds
310° at 3 knots 10,000+ meters
  • Few at 6,000' AGL
Temperatures Readings
Current 18°C / 64°F
Dewpoint 15°C / 59°F
Humidity 83%
Altimeter 29.91" Hg
Pressure 1013 hPa
Elevation 184
METAR EPLL 152100Z 31003KT 270V350 9999 FEW060CB 18/15 Q1013
Observed Flight Rules
Jul-15 @ 21:00 UTC
(12 minutes ago)
VFR
Wind Visibility
310° at 3 knots 10,000+ meters
Clouds
  • Few at 6,000' AGL
Temperature Dewpoint
18°C / 64°F 15°C / 59°F
Humidity Altimeter Pressure
83% 29.91" Hg 1013 hPa